Time,TemperatureF,DewpointF,PressureIn,WindDirection,WindDirectionDegrees,WindSpeedMPH,WindSpeedGustMPH,Humidity,HourlyPrecipIn,Conditions,Clouds,dailyrainin,SoftwareType,DateUTC
2013-03-17 00:11:00,48.3,44.6,30.14,WNW,290,0.0,1.0,87,0.00,,---,0.00,VWS V14.01,2013-03-17 07:11:00,
2013-03-17 00:22:00,48.0,44.3,30.14,WNW,290,0.0,1.0,87,0.00,,---,0.00,VWS V14.01,2013-03-17 07:22:00,
2013-03-17 00:31:00,47.9,44.2,30.14,WNW,291,0.0,0.0,87,0.00,,---,0.00,VWS V14.01,2013-03-17 07:31:00,
2013-03-17 00:41:00,48.1,44.4,30.14,NW,315,0.0,1.0,87,0.00,,---,0.00,VWS V14.01,2013-03-17 07:41:00,
2013-03-17 00:51:00,47.6,44.2,30.14,NW,316,0.0,0.0,88,0.00,,---,0.00,VWS V14.01,2013-03-17 07:51:00,
2013-03-17 01:02:00,47.4,43.7,30.14,NW,316,0.0,0.0,87,0.00,,---,0.00,VWS V14.01,2013-03-17 08:02:00,
2013-03-17 01:11:00,47.6,43.9,30.14,NW,316,0.0,0.0,87,0.00,,---,0.00,VWS V14.01,2013-03-17 08:11:00,
2013-03-17 01:21:00,47.8,43.8,30.14,NW,316,0.0,0.0,86,0.00,,---,0.00,VWS V14.01,2013-03-17 08:21:00,
2013-03-17 01:31:00,47.7,43.4,30.14,NW,316,0.0,0.0,85,0.00,,---,0.00,VWS V14.01,2013-03-17 08:31:00,
2013-03-17 01:41:00,47.4,43.4,30.14,NW,316,0.0,0.0,86,0.00,,---,0.00,VWS V14.01,2013-03-17 08:41:00,
2013-03-17 01:51:00,47.1,43.1,30.14,NW,316,0.0,0.0,86,0.00,,---,0.00,VWS V14.01,2013-03-17 08:51:00,
2013-03-17 02:01:00,47.4,43.4,30.14,NW,316,0.0,0.0,86,0.00,,---,0.00,VWS V14.01,2013-03-17 09:01:00,
2013-03-17 02:11:00,46.9,43.2,30.14,NW,316,0.0,0.0,87,0.00,,---,0.00,VWS V14.01,2013-03-17 09:11:00,
2013-03-17 02:21:00,46.8,43.4,30.14,NW,316,0.0,0.0,88,0.00,,---,0.00,VWS V14.01,2013-03-17 09:21:00,
2013-03-17 02:31:00,46.5,43.1,30.14,NW,316,0.0,0.0,88,0.00,,---,0.00,VWS V14.01,2013-03-17 09:31:00,
2013-03-17 02:41:00,46.0,42.9,30.14,NW,316,0.0,0.0,89,0.00,,---,0.00,VWS V14.01,2013-03-17 09:41:00,
2013-03-17 02:51:00,45.3,42.5,30.14,NW,316,0.0,0.0,90,0.00,,---,0.00,VWS V14.01,2013-03-17 09:51:00,
2013-03-17 03:01:00,44.9,42.4,30.14,NW,316,0.0,0.0,91,0.00,,---,0.00,VWS V14.01,2013-03-17 10:01:00,
2013-03-17 03:11:00,44.3,42.1,30.13,WNW,284,0.0,2.0,92,0.00,,---,0.00,VWS V14.01,2013-03-17 10:11:00,
2013-03-17 03:21:00,44.2,42.3,30.13,NW,305,0.0,3.0,93,0.00,,---,0.00,VWS V14.01,2013-03-17 10:21:00,
2013-03-17 03:31:00,44.3,42.4,30.12,NNE,16,0.0,3.0,93,0.00,,---,0.00,VWS V14.01,2013-03-17 10:31:00,
2013-03-17 03:41:00,45.8,42.7,30.12,WSW,257,2.0,3.0,89,0.00,,---,0.00,VWS V14.01,2013-03-17 10:41:00,
2013-03-17 03:51:00,47.7,42.8,30.11,West,268,0.0,3.0,83,0.00,,---,0.00,VWS V14.01,2013-03-17 10:51:00,
2013-03-17 03:57:00,49.0,41.8,30.10,NW,312,1.0,5.0,76,0.00,,---,0.00,VWS V14.01,2013-03-17 10:57:00,
2013-03-17 04:02:00,50.7,41.6,30.11,West,269,1.0,5.0,71,0.00,,---,0.00,VWS V14.01,2013-03-17 11:02:00,
2013-03-17 04:11:00,52.1,41.1,30.10,NNW,343,2.0,8.0,66,0.00,,---,0.00,VWS V14.01,2013-03-17 11:11:00,
2013-03-17 04:22:00,52.5,40.3,30.10,NNW,339,2.0,6.0,63,0.00,,---,0.00,VWS V14.01,2013-03-17 11:22:00,
2013-03-17 04:27:00,52.5,39.8,30.10,NNW,333,1.0,4.0,62,0.00,,---,0.00,VWS V14.01,2013-03-17 11:27:00,
2013-03-17 04:41:00,52.5,40.3,30.10,NE,53,0.0,7.0,63,0.00,,---,0.00,VWS V14.01,2013-03-17 11:41:00,
2013-03-17 04:51:00,51.1,40.9,30.10,ENE,75,1.0,2.0,68,0.00,,---,0.00,VWS V14.01,2013-03-17 11:51:00,
2013-03-17 04:57:00,50.1,40.3,30.10,ENE,70,0.0,2.0,69,0.00,,---,0.00,VWS V14.01,2013-03-17 11:57:00,
2013-03-17 05:11:00,49.0,39.6,30.10,SE,139,0.0,2.0,70,0.00,,---,0.00,VWS V14.01,2013-03-17 12:11:00,
2013-03-17 05:21:00,48.9,39.5,30.10,SE,132,0.0,3.0,70,0.00,,---,0.00,VWS V14.01,2013-03-17 12:21:00,
2013-03-17 05:27:00,49.0,38.9,30.10,SE,141,0.0,3.0,68,0.00,,---,0.00,VWS V14.01,2013-03-17 12:27:00,
2013-03-17 05:41:00,48.7,38.2,30.10,NNW,328,0.0,2.0,67,0.00,,---,0.00,VWS V14.01,2013-03-17 12:41:00,
2013-03-17 05:51:00,48.6,37.4,30.10,North,360,0.0,1.0,65,0.00,,---,0.00,VWS V14.01,2013-03-17 12:51:00,
2013-03-17 05:57:00,48.9,38.0,30.10,East,81,0.0,1.0,66,0.00,,---,0.00,VWS V14.01,2013-03-17 12:57:00,
2013-03-17 06:11:00,48.8,37.5,30.11,North,354,0.0,2.0,65,0.00,,---,0.00,VWS V14.01,2013-03-17 13:11:00,
2013-03-17 06:21:00,48.5,36.5,30.11,NW,312,0.0,2.0,63,0.00,,---,0.00,VWS V14.01,2013-03-17 13:21:00,
2013-03-17 06:27:00,48.4,37.2,30.12,NNW,338,0.0,1.0,65,0.00,,---,0.00,VWS V14.01,2013-03-17 13:27:00,
2013-03-17 06:42:00,48.4,36.0,30.12,ENE,63,0.0,1.0,62,0.00,,---,0.00,VWS V14.01,2013-03-17 13:42:00,
2013-03-17 06:51:00,47.9,37.8,30.12,NNE,18,0.0,1.0,68,0.00,,---,0.00,VWS V14.01,2013-03-17 13:51:00,
2013-03-17 06:57:00,47.7,37.3,30.13,NNE,18,0.0,0.0,67,0.00,,---,0.00,VWS V14.01,2013-03-17 13:57:00,
2013-03-17 07:11:00,47.5,37.5,30.13,ENE,60,0.0,1.0,68,0.00,,---,0.00,VWS V14.01,2013-03-17 14:11:00,
2013-03-17 07:27:00,47.4,37.0,30.13,NW,326,0.0,2.0,67,0.00,,---,0.00,VWS V14.01,2013-03-17 14:27:00,
2013-03-17 07:41:00,47.8,37.0,30.13,NE,53,0.0,1.0,66,0.00,,---,0.00,VWS V14.01,2013-03-17 14:41:00,
2013-03-17 07:51:00,48.3,37.5,30.13,NE,49,0.0,3.0,66,0.00,,---,0.00,VWS V14.01,2013-03-17 14:51:00,
2013-03-17 07:57:00,48.6,38.1,30.13,NNE,22,0.0,2.0,67,0.00,,---,0.00,VWS V14.01,2013-03-17 14:57:00,
2013-03-17 08:11:00,48.4,38.7,30.13,NE,44,0.0,1.0,69,0.00,,---,0.00,VWS V14.01,2013-03-17 15:11:00,
2013-03-17 08:22:00,48.5,38.0,30.13,NE,44,0.0,0.0,67,0.00,,---,0.00,VWS V14.01,2013-03-17 15:22:00,
2013-03-17 08:27:00,48.6,38.5,30.13,NNE,25,0.0,0.0,68,0.00,,---,0.00,VWS V14.01,2013-03-17 15:27:00,
2013-03-17 08:41:00,48.5,39.2,30.13,NNE,32,0.0,1.0,70,0.00,,---,0.00,VWS V14.01,2013-03-17 15:41:00,
2013-03-17 08:51:00,48.7,39.0,30.13,NNE,32,0.0,0.0,69,0.00,,---,0.00,VWS V14.01,2013-03-17 15:51:00,
2013-03-17 08:57:00,49.1,40.1,30.13,NNE,32,0.0,1.0,71,0.00,,---,0.00,VWS V14.01,2013-03-17 15:57:00,
2013-03-17 09:11:00,49.8,40.0,30.14,North,356,0.0,1.0,69,0.00,,---,0.00,VWS V14.01,2013-03-17 16:11:00,
2013-03-17 09:21:00,49.7,39.6,30.14,North,356,0.0,1.0,68,0.00,,---,0.00,VWS V14.01,2013-03-17 16:21:00,
2013-03-17 09:27:00,49.9,39.8,30.13,North,355,0.0,0.0,68,0.00,,---,0.00,VWS V14.01,2013-03-17 16:27:00,
2013-03-17 09:41:00,50.6,39.7,30.13,North,356,0.0,0.0,66,0.00,,---,0.00,VWS V14.01,2013-03-17 16:41:00,
2013-03-17 09:51:00,51.1,39.7,30.14,North,356,0.0,1.0,65,0.00,,---,0.00,VWS V14.01,2013-03-17 16:51:00,
2013-03-17 09:57:00,51.4,40.4,30.14,North,355,0.0,0.0,66,0.00,,---,0.00,VWS V14.01,2013-03-17 16:57:00,
2013-03-17 10:11:00,52.4,41.0,30.14,North,355,0.0,1.0,65,0.00,,---,0.00,VWS V14.01,2013-03-17 17:11:00,
2013-03-17 10:21:00,53.2,41.3,30.14,North,354,0.0,0.0,64,0.00,,---,0.00,VWS V14.01,2013-03-17 17:21:00,
2013-03-17 10:27:00,53.7,41.4,30.14,North,356,0.0,0.0,63,0.00,,---,0.00,VWS V14.01,2013-03-17 17:27:00,
2013-03-17 10:41:00,54.6,40.1,30.13,North,356,0.0,0.0,58,0.00,,---,0.00,VWS V14.01,2013-03-17 17:41:00,
2013-03-17 10:51:00,55.3,40.8,30.14,North,352,0.0,1.0,58,0.00,,---,0.00,VWS V14.01,2013-03-17 17:51:00,
2013-03-17 10:57:00,55.7,41.6,30.14,North,352,0.0,0.0,59,0.00,,---,0.00,VWS V14.01,2013-03-17 17:57:00,
2013-03-17 11:11:00,56.4,42.7,30.13,North,351,0.0,0.0,60,0.00,,---,0.00,VWS V14.01,2013-03-17 18:11:00,
2013-03-17 11:21:00,56.9,41.8,30.13,North,351,0.0,0.0,57,0.00,,---,0.00,VWS V14.01,2013-03-17 18:21:00,
2013-03-17 11:27:00,57.4,42.3,30.13,North,351,0.0,1.0,57,0.00,,---,0.00,VWS V14.01,2013-03-17 18:27:00,
2013-03-17 11:42:00,58.0,40.5,30.12,North,352,0.0,1.0,52,0.00,,---,0.00,VWS V14.01,2013-03-17 18:42:00,
2013-03-17 11:51:00,59.0,39.9,30.12,NNE,20,0.0,1.0,49,0.00,,---,0.00,VWS V14.01,2013-03-17 18:51:00,
2013-03-17 11:57:00,59.4,40.2,30.12,NNE,20,0.0,0.0,49,0.00,,---,0.00,VWS V14.01,2013-03-17 18:57:00,
2013-03-17 12:11:00,60.5,39.6,30.11,NW,325,0.0,1.0,46,0.00,,---,0.00,VWS V14.01,2013-03-17 19:11:00,
2013-03-17 12:21:00,60.9,38.8,30.10,North,355,0.0,1.0,44,0.00,,---,0.00,VWS V14.01,2013-03-17 19:21:00,
2013-03-17 12:27:00,61.2,38.5,30.10,North,356,0.0,1.0,43,0.00,,---,0.00,VWS V14.01,2013-03-17 19:27:00,
2013-03-17 12:41:00,62.0,44.2,30.10,North,355,0.0,1.0,52,0.00,,---,0.00,VWS V14.01,2013-03-17 19:41:00,
2013-03-17 12:52:00,61.9,47.4,30.10,North,356,0.0,1.0,59,0.00,,---,0.00,VWS V14.01,2013-03-17 19:52:00,
2013-03-17 12:57:00,61.6,47.6,30.10,North,356,0.0,0.0,60,0.00,,---,0.00,VWS V14.01,2013-03-17 19:57:00,
2013-03-17 13:11:00,61.5,47.9,30.10,North,1,1.0,1.0,61,0.00,,---,0.00,VWS V14.01,2013-03-17 20:11:00,
2013-03-17 13:21:00,62.5,47.5,30.10,NE,55,0.0,2.0,58,0.00,,---,0.00,VWS V14.01,2013-03-17 20:21:00,
2013-03-17 13:27:00,62.4,44.0,30.10,South,185,0.0,3.0,51,0.00,,---,0.00,VWS V14.01,2013-03-17 20:27:00,
2013-03-17 13:41:00,61.6,43.8,30.09,ENE,63,1.0,4.0,52,0.00,,---,0.00,VWS V14.01,2013-03-17 20:41:00,
2013-03-17 13:51:00,61.8,46.9,30.09,ENE,57,0.0,3.0,58,0.00,,---,0.00,VWS V14.01,2013-03-17 20:51:00,
2013-03-17 13:58:00,61.5,45.7,30.08,North,11,0.0,1.0,56,0.00,,---,0.00,VWS V14.01,2013-03-17 20:58:00,
2013-03-17 14:12:00,61.3,46.8,30.08,North,11,0.0,0.0,59,0.00,,---,0.00,VWS V14.01,2013-03-17 21:12:00,
2013-03-17 14:21:00,61.9,45.1,30.08,SSW,200,0.0,3.0,54,0.00,,---,0.00,VWS V14.01,2013-03-17 21:21:00,
2013-03-17 14:28:00,61.9,43.0,30.07,SSW,202,0.0,2.0,50,0.00,,---,0.00,VWS V14.01,2013-03-17 21:28:00,
2013-03-17 14:41:00,61.7,46.8,30.07,SSE,168,1.0,3.0,58,0.00,,---,0.00,VWS V14.01,2013-03-17 21:41:00,
2013-03-17 14:51:00,61.0,46.6,30.06,NE,55,0.0,2.0,59,0.00,,---,0.00,VWS V14.01,2013-03-17 21:51:00,
2013-03-17 14:58:00,60.6,46.6,30.06,NE,54,0.0,0.0,60,0.00,,---,0.00,VWS V14.01,2013-03-17 21:58:00,
2013-03-17 15:11:00,60.2,47.5,30.05,NE,37,0.0,0.0,63,0.00,,---,0.00,VWS V14.01,2013-03-17 22:11:00,
2013-03-17 15:21:00,60.3,46.8,30.05,North,10,0.0,1.0,61,0.00,,---,0.00,VWS V14.01,2013-03-17 22:21:00,
2013-03-17 15:28:00,60.5,46.5,30.05,NE,53,0.0,1.0,60,0.00,,---,0.00,VWS V14.01,2013-03-17 22:28:00,
2013-03-17 15:41:00,61.0,47.9,30.05,NE,41,0.0,1.0,62,0.00,,---,0.00,VWS V14.01,2013-03-17 22:41:00,
2013-03-17 15:51:00,61.0,48.3,30.05,NNE,28,0.0,0.0,63,0.00,,---,0.00,VWS V14.01,2013-03-17 22:51:00,
2013-03-17 15:58:00,61.1,48.0,30.04,NNE,28,0.0,0.0,62,0.00,,---,0.00,VWS V14.01,2013-03-17 22:58:00,
2013-03-17 16:12:00,61.4,45.1,30.05,NW,316,0.0,1.0,55,0.00,,---,0.00,VWS V14.01,2013-03-17 23:12:00,
2013-03-17 16:21:00,61.3,48.2,30.05,North,357,0.0,1.0,62,0.00,,---,0.00,VWS V14.01,2013-03-17 23:21:00,
2013-03-17 16:28:00,60.9,47.8,30.05,North,359,0.0,0.0,62,0.00,,---,0.00,VWS V14.01,2013-03-17 23:28:00,
2013-03-17 16:42:00,60.0,47.8,30.05,North,359,0.0,0.0,64,0.00,,---,0.00,VWS V14.01,2013-03-17 23:42:00,
2013-03-17 16:51:00,59.5,47.7,30.05,NNE,23,0.0,1.0,65,0.00,,---,0.00,VWS V14.01,2013-03-17 23:51:00,
2013-03-17 16:58:00,59.0,47.7,30.05,NNE,24,0.0,0.0,66,0.00,,---,0.00,VWS V14.01,2013-03-17 23:58:00,
2013-03-17 17:11:00,58.0,47.1,30.05,NNE,24,0.0,0.0,67,0.00,,---,0.00,VWS V14.01,2013-03-18 00:11:00,
2013-03-17 17:21:00,57.2,46.7,30.05,NNE,23,0.0,0.0,68,0.00,,---,0.00,VWS V14.01,2013-03-18 00:21:00,
2013-03-17 17:28:00,56.7,46.6,30.04,NNE,23,0.0,0.0,69,0.00,,---,0.00,VWS V14.01,2013-03-18 00:28:00,
2013-03-17 17:41:00,55.9,47.0,30.04,NNE,22,0.0,0.0,72,0.00,,---,0.00,VWS V14.01,2013-03-18 00:41:00,
2013-03-17 17:51:00,55.5,46.6,30.04,NNE,23,0.0,0.0,72,0.00,,---,0.00,VWS V14.01,2013-03-18 00:51:00,
2013-03-17 17:58:00,55.3,46.8,30.04,NNE,22,0.0,0.0,73,0.00,,---,0.00,VWS V14.01,2013-03-18 00:58:00,
2013-03-17 18:11:00,54.9,46.8,30.04,NNE,22,0.0,0.0,74,0.00,,---,0.00,VWS V14.01,2013-03-18 01:11:00,
2013-03-17 18:22:00,54.6,46.8,30.04,NNE,23,0.0,0.0,75,0.00,,---,0.00,VWS V14.01,2013-03-18 01:22:00,
2013-03-17 18:28:00,54.5,46.7,30.04,NNE,22,0.0,0.0,75,0.00,,---,0.00,VWS V14.01,2013-03-18 01:28:00,
2013-03-17 18:41:00,54.0,46.6,30.03,NNE,22,0.0,0.0,76,0.00,,---,0.00,VWS V14.01,2013-03-18 01:41:00,
2013-03-17 18:51:00,53.9,46.5,30.03,NNE,23,0.0,0.0,76,0.00,,---,0.00,VWS V14.01,2013-03-18 01:51:00,
2013-03-17 18:58:00,53.6,46.2,30.04,NE,37,0.0,1.0,76,0.00,,---,0.00,VWS V14.01,2013-03-18 01:58:00,
2013-03-17 19:11:00,53.1,46.8,30.04,NE,35,0.0,1.0,79,0.00,,---,0.00,VWS V14.01,2013-03-18 02:11:00,
2013-03-17 19:21:00,52.8,46.1,30.04,NE,35,0.0,0.0,78,0.00,,---,0.00,VWS V14.01,2013-03-18 02:21:00,
2013-03-17 19:28:00,52.5,46.2,30.04,NE,35,0.0,0.0,79,0.00,,---,0.00,VWS V14.01,2013-03-18 02:28:00,
2013-03-17 19:43:00,51.7,45.7,30.04,NE,35,0.0,0.0,80,0.00,,---,0.00,VWS V14.01,2013-03-18 02:43:00,
2013-03-17 19:51:00,51.2,45.6,30.04,NE,34,0.0,0.0,81,0.00,,---,0.00,VWS V14.01,2013-03-18 02:51:00,
2013-03-17 19:58:00,51.1,45.8,30.04,NNE,33,0.0,0.0,82,0.00,,---,0.00,VWS V14.01,2013-03-18 02:58:00,
2013-03-17 20:11:00,50.6,45.9,30.05,NE,34,0.0,0.0,84,0.00,,---,0.00,VWS V14.01,2013-03-18 03:11:00,
2013-03-17 20:28:00,50.3,46.3,30.05,NE,34,0.0,0.0,86,0.00,,---,0.00,VWS V14.01,2013-03-18 03:28:00,
2013-03-17 20:41:00,50.2,46.5,30.05,NE,34,0.0,0.0,87,0.00,,---,0.00,VWS V14.01,2013-03-18 03:41:00,
2013-03-17 20:51:00,50.0,46.3,30.05,NE,34,0.0,0.0,87,0.00,,---,0.00,VWS V14.01,2013-03-18 03:51:00,
2013-03-17 20:58:00,49.9,46.2,30.05,NE,34,0.0,0.0,87,0.00,,---,0.00,VWS V14.01,2013-03-18 03:58:00,
2013-03-17 21:01:00,49.9,46.2,30.05,NNE,33,0.0,0.0,87,0.00,,---,0.00,VWS V14.01,2013-03-18 04:01:00,
2013-03-17 21:11:00,49.8,46.4,30.05,NNE,33,0.0,0.0,88,0.00,,---,0.00,VWS V14.01,2013-03-18 04:11:00,
2013-03-17 21:21:00,49.6,46.2,30.06,NE,34,0.0,0.0,88,0.00,,---,0.00,VWS V14.01,2013-03-18 04:21:00,
2013-03-17 21:28:00,49.4,46.0,30.06,NNE,33,0.0,0.0,88,0.00,,---,0.00,VWS V14.01,2013-03-18 04:28:00,
2013-03-17 21:41:00,49.2,45.8,30.06,NNE,33,0.0,0.0,88,0.00,,---,0.00,VWS V14.01,2013-03-18 04:41:00,
2013-03-17 21:43:00,49.2,45.8,30.06,NE,34,0.0,0.0,88,0.00,,---,0.00,VWS V14.01,2013-03-18 04:43:00,
2013-03-17 21:51:00,49.2,45.8,30.06,NE,34,0.0,0.0,88,0.00,,---,0.00,VWS V14.01,2013-03-18 04:51:00,
2013-03-17 21:58:00,49.2,46.1,30.07,NE,34,0.0,0.0,89,0.00,,---,0.00,VWS V14.01,2013-03-18 04:58:00,
2013-03-17 22:11:00,48.8,45.7,30.06,NE,34,0.0,1.0,89,0.00,,---,0.00,VWS V14.01,2013-03-18 05:11:00,
2013-03-17 22:21:00,48.6,45.5,30.06,NE,34,0.0,0.0,89,0.00,,---,0.00,VWS V14.01,2013-03-18 05:21:00,
2013-03-17 22:28:00,48.3,45.5,30.06,NNE,33,0.0,0.0,90,0.00,,---,0.00,VWS V14.01,2013-03-18 05:28:00,
2013-03-17 22:41:00,47.9,45.4,30.06,NNE,33,0.0,0.0,91,0.00,,---,0.00,VWS V14.01,2013-03-18 05:41:00,
2013-03-17 22:51:00,47.9,45.4,30.06,NE,34,0.0,0.0,91,0.00,,---,0.00,VWS V14.01,2013-03-18 05:51:00,
2013-03-17 22:58:00,47.8,45.3,30.06,NE,34,0.0,0.0,91,0.00,,---,0.00,VWS V14.01,2013-03-18 05:58:00,
2013-03-17 23:11:00,47.6,45.1,30.07,NE,34,0.0,0.0,91,0.00,,---,0.00,VWS V14.01,2013-03-18 06:11:00,
2013-03-17 23:21:00,47.4,44.9,30.07,NE,34,0.0,0.0,91,0.00,,---,0.00,VWS V14.01,2013-03-18 06:21:00,
2013-03-17 23:28:00,47.3,45.1,30.07,NE,34,0.0,0.0,92,0.00,,---,0.00,VWS V14.01,2013-03-18 06:28:00,
2013-03-17 23:41:00,46.9,44.7,30.07,NNE,33,0.0,0.0,92,0.00,,---,0.00,VWS V14.01,2013-03-18 06:41:00,
2013-03-17 23:51:00,46.7,44.5,30.08,NE,34,0.0,0.0,92,0.00,,---,0.00,VWS V14.01,2013-03-18 06:51:00,
2013-03-17 23:58:00,46.5,44.6,30.08,NNE,33,0.0,0.0,93,0.00,,---,0.00,VWS V14.01,2013-03-18 06:58:00,